Time;durP1;ratioP1;P1;durP2;ratioP2;P2;SDS_P1;SDS_P2;PMS_P1;PMS_P2;Temp;Humidity;BMP_temperature;BMP_pressure;BME280_temperature;BME280_humidity;BME280_pressure;Samples;Min_cycle;Max_cycle;Signal;HPM_P1;HPM_P2
2023/07/09 00:01:46;;;;;;;3.92;3.30;;;21.70;99.90;;;;;;5034863;28;20400;-64
2023/07/09 00:04:13;;;;;;;4.65;3.40;;;21.70;99.90;;;;;;5026181;28;21172;-64
2023/07/09 00:06:41;;;;;;;4.40;3.67;;;21.60;99.90;;;;;;5024915;28;20251;-65
2023/07/09 00:09:14;;;;;;;6.95;3.00;;;21.70;99.90;;;;;;5034266;28;20235;-64
2023/07/09 00:11:41;;;;;;;4.75;3.53;;;21.70;99.90;;;;;;5016199;28;21632;-64
2023/07/09 00:14:09;;;;;;;6.40;3.65;;;21.70;99.90;;;;;;5037197;28;20309;-65
2023/07/09 00:16:37;;;;;;;8.20;3.70;;;21.70;99.90;;;;;;5030584;28;20407;-64
2023/07/09 00:19:04;;;;;;;3.45;3.00;;;21.70;99.90;;;;;;5033100;28;20628;-64
2023/07/09 00:21:33;;;;;;;5.35;3.40;;;21.60;99.90;;;;;;5039977;28;20205;-64
2023/07/09 00:24:04;;;;;;;6.10;3.70;;;21.70;99.90;;;;;;5022467;28;20217;-65
2023/07/09 00:26:31;;;;;;;4.65;3.55;;;21.60;99.90;;;;;;5013102;28;20268;-64
2023/07/09 00:28:58;;;;;;;3.83;3.50;;;21.60;99.90;;;;;;5018330;28;20240;-64
2023/07/09 00:31:25;;;;;;;4.93;3.72;;;21.60;99.90;;;;;;5040802;28;20228;-65
2023/07/09 00:33:55;;;;;;;3.53;3.22;;;21.50;99.90;;;;;;5027201;28;20216;-64
2023/07/09 00:36:28;;;;;;;6.68;3.63;;;21.50;99.90;;;;;;5039852;28;20201;-64
2023/07/09 00:39:04;;;;;;;3.90;3.50;;;21.50;99.90;;;;;;5019993;28;20229;-65
2023/07/09 00:41:34;;;;;;;4.20;3.80;;;21.50;99.90;;;;;;5038054;28;20505;-64
2023/07/09 00:44:29;;;;;;;5.60;3.60;;;21.40;99.90;;;;;;5018409;28;20248;-64
2023/07/09 00:47:21;;;;;;;4.55;3.85;;;21.50;99.90;;;;;;5035671;28;20228;-64
2023/07/09 00:49:49;;;;;;;4.60;3.65;;;21.40;99.90;;;;;;5025802;28;20233;-64
2023/07/09 00:52:25;;;;;;;3.95;3.42;;;21.50;99.90;;;;;;5033686;28;20201;-64
2023/07/09 00:54:53;;;;;;;4.60;3.50;;;21.40;99.90;;;;;;5033744;28;20215;-65
2023/07/09 00:57:23;;;;;;;5.75;3.47;;;21.40;99.90;;;;;;5040175;28;20197;-64
2023/07/09 00:59:53;;;;;;;4.63;4.07;;;21.50;99.90;;;;;;5017340;28;20425;-65
2023/07/09 01:02:23;;;;;;;5.28;4.10;;;21.40;99.90;;;;;;5036157;28;20196;-64
2023/07/09 01:04:52;;;;;;;4.60;4.15;;;21.40;99.90;;;;;;5033403;28;20667;-64
2023/07/09 01:07:19;;;;;;;4.88;3.78;;;21.40;99.90;;;;;;5038380;28;20201;-64
2023/07/09 01:09:46;;;;;;;6.05;3.90;;;21.30;99.90;;;;;;5032009;28;20576;-64
2023/07/09 01:12:15;;;;;;;4.97;3.90;;;21.30;99.90;;;;;;5041102;28;20331;-65
2023/07/09 01:14:43;;;;;;;7.10;3.83;;;21.30;99.90;;;;;;5013529;28;20212;-64
2023/07/09 01:17:11;;;;;;;5.30;3.80;;;21.30;99.90;;;;;;5040668;28;20205;-65
2023/07/09 01:19:42;;;;;;;4.40;4.00;;;21.20;99.90;;;;;;5034889;28;20205;-64
2023/07/09 01:22:12;;;;;;;9.48;3.80;;;21.10;99.90;;;;;;5032595;28;20204;-64
2023/07/09 01:24:57;;;;;;;6.82;3.90;;;21.10;99.90;;;;;;5030927;28;20539;-64
2023/07/09 01:27:27;;;;;;;6.13;4.10;;;21.10;99.90;;;;;;5039073;28;20201;-64
2023/07/09 01:29:54;;;;;;;7.57;3.40;;;21.00;99.90;;;;;;5014686;28;20972;-64
2023/07/09 01:32:22;;;;;;;4.68;3.95;;;20.90;99.90;;;;;;5040101;28;20224;-64
2023/07/09 01:34:52;;;;;;;4.43;4.03;;;20.80;99.90;;;;;;5034601;28;20409;-64
2023/07/09 01:37:23;;;;;;;6.65;4.03;;;20.90;99.90;;;;;;5013493;28;20683;-64
2023/07/09 01:39:50;;;;;;;7.53;4.07;;;20.80;99.90;;;;;;5042868;28;20254;-64
2023/07/09 01:42:17;;;;;;;6.35;4.30;;;20.80;99.90;;;;;;5018279;28;20204;-64
2023/07/09 01:44:45;;;;;;;4.38;3.60;;;20.70;99.90;;;;;;5038109;28;20670;-64
2023/07/09 01:47:12;;;;;;;5.82;4.30;;;20.70;99.90;;;;;;5015974;28;20227;-64
2023/07/09 01:49:40;;;;;;;5.13;4.22;;;20.70;99.90;;;;;;5042825;28;20244;-64
2023/07/09 01:52:08;;;;;;;4.60;3.75;;;20.60;99.90;;;;;;5031986;28;20213;-64
2023/07/09 01:54:37;;;;;;;6.55;3.88;;;20.60;99.90;;;;;;5043769;28;21250;-64
2023/07/09 01:57:19;;;;;;;5.80;4.40;;;20.60;99.90;;;;;;5023836;28;20201;-64
2023/07/09 01:59:46;;;;;;;10.55;4.28;;;20.60;99.90;;;;;;5048190;28;20199;-64
2023/07/09 02:02:18;;;;;;;6.72;4.00;;;20.80;99.90;;;;;;5004522;28;20220;-64
2023/07/09 02:04:46;;;;;;;7.28;4.53;;;20.80;99.90;;;;;;5043633;28;20200;-64
2023/07/09 02:07:13;;;;;;;6.50;3.95;;;21.00;99.90;;;;;;5029593;28;20208;-64
2023/07/09 02:09:41;;;;;;;4.50;4.10;;;20.80;99.90;;;;;;5046672;28;20225;-64
2023/07/09 02:12:09;;;;;;;4.45;3.80;;;20.60;99.90;;;;;;5031681;28;20204;-64
2023/07/09 02:14:36;;;;;;;6.03;4.20;;;20.80;99.90;;;;;;5037137;28;20745;-65
2023/07/09 02:17:02;;;;;;;5.97;4.05;;;20.60;99.90;;;;;;5016033;28;20212;-64
2023/07/09 02:19:30;;;;;;;6.65;4.40;;;20.60;99.90;;;;;;5039707;28;20666;-64
2023/07/09 02:21:57;;;;;;;7.20;4.65;;;20.60;99.90;;;;;;5041013;28;20249;-64
2023/07/09 02:24:25;;;;;;;4.65;4.15;;;20.80;99.90;;;;;;5030190;28;20259;-64
2023/07/09 02:26:53;;;;;;;5.18;4.00;;;20.80;99.90;;;;;;5038409;28;20205;-65
2023/07/09 02:29:20;;;;;;;5.22;4.20;;;20.70;99.90;;;;;;5029821;28;20796;-64
2023/07/09 02:31:46;;;;;;;10.57;4.55;;;20.70;99.90;;;;;;5014875;28;21013;-64
2023/07/09 02:34:13;;;;;;;5.82;4.18;;;20.80;99.90;;;;;;5040344;28;20718;-64
2023/07/09 02:36:42;;;;;;;4.95;4.45;;;20.80;99.90;;;;;;5043988;28;20208;-64
2023/07/09 02:39:09;;;;;;;4.57;4.18;;;20.80;99.90;;;;;;5031476;28;20201;-64
2023/07/09 02:41:36;;;;;;;5.72;4.82;;;20.70;99.90;;;;;;5045927;28;20197;-64
2023/07/09 02:44:05;;;;;;;3.97;3.67;;;20.70;99.90;;;;;;5026237;28;20682;-64
2023/07/09 02:46:32;;;;;;;4.80;4.35;;;20.80;99.90;;;;;;5010262;28;20251;-64
2023/07/09 02:48:59;;;;;;;4.53;3.92;;;20.70;99.90;;;;;;5039798;28;20194;-65
2023/07/09 02:51:26;;;;;;;6.63;4.35;;;20.70;99.90;;;;;;5031499;28;20958;-64
2023/07/09 02:53:55;;;;;;;6.43;4.22;;;20.70;99.90;;;;;;5034226;28;20212;-64
2023/07/09 02:56:22;;;;;;;6.05;4.32;;;20.60;99.90;;;;;;5038390;28;20196;-64
2023/07/09 02:58:49;;;;;;;9.73;4.75;;;20.60;99.90;;;;;;5035684;28;20212;-64
2023/07/09 03:01:17;;;;;;;5.63;4.53;;;20.60;99.90;;;;;;5034899;28;20213;-65
2023/07/09 03:03:44;;;;;;;6.45;4.15;;;20.60;99.90;;;;;;5018134;28;20224;-64
2023/07/09 03:06:11;;;;;;;8.98;4.57;;;20.60;99.90;;;;;;5038442;28;20197;-64
2023/07/09 03:08:38;;;;;;;5.65;4.65;;;20.60;99.90;;;;;;5028322;28;20201;-64
2023/07/09 03:11:10;;;;;;;12.20;4.80;;;20.50;99.90;;;;;;5038125;28;20235;-64
2023/07/09 03:13:37;;;;;;;5.28;4.65;;;21.10;99.90;;;;;;5026114;28;21036;-64
2023/07/09 03:16:05;;;;;;;4.82;4.38;;;20.40;99.90;;;;;;5030778;28;20209;-65
2023/07/09 03:18:33;;;;;;;4.43;4.03;;;20.40;99.90;;;;;;5012116;28;20212;-64
2023/07/09 03:21:01;;;;;;;4.82;4.40;;;20.50;99.90;;;;;;5040777;28;20208;-64
2023/07/09 03:23:27;;;;;;;4.75;4.25;;;20.40;99.90;;;;;;5031594;28;20237;-65
2023/07/09 03:25:54;;;;;;;6.80;4.35;;;;;;;;;;5024468;28;20212;-65
2023/07/09 03:28:21;;;;;;;5.15;4.25;;;20.40;99.90;;;;;;5032554;28;21712;-64
2023/07/09 03:30:50;;;;;;;7.60;4.22;;;20.40;99.90;;;;;;5033070;28;20220;-64
2023/07/09 03:33:18;;;;;;;7.97;4.28;;;20.40;99.90;;;;;;5021827;28;20224;-64
2023/07/09 03:35:46;;;;;;;4.80;4.30;;;20.40;99.90;;;;;;5041445;28;20193;-64
2023/07/09 03:38:13;;;;;;;6.75;4.50;;;20.20;99.90;;;;;;5029840;28;20205;-64
2023/07/09 03:40:40;;;;;;;9.90;4.43;;;20.20;99.90;;;;;;5028349;28;20205;-64
2023/07/09 03:43:07;;;;;;;4.68;4.20;;;20.10;99.90;;;;;;5037248;28;20208;-64
2023/07/09 03:45:36;;;;;;;5.95;4.20;;;20.50;99.90;;;;;;5024434;28;20205;-64
2023/07/09 03:48:03;;;;;;;5.40;4.10;;;20.00;99.90;;;;;;5032038;28;20197;-64
2023/07/09 03:50:30;;;;;;;9.00;4.28;;;19.90;99.90;;;;;;5022993;28;20224;-64
2023/07/09 03:53:00;;;;;;;7.13;4.57;;;20.10;99.90;;;;;;5032969;28;20208;-64
2023/07/09 03:55:26;;;;;;;7.82;4.53;;;20.10;99.90;;;;;;5039403;28;20208;-64
2023/07/09 03:57:53;;;;;;;7.18;4.53;;;20.10;99.90;;;;;;5025390;28;20235;-64
2023/07/09 04:00:20;;;;;;;5.55;4.30;;;20.30;99.90;;;;;;5024898;28;20224;-65
2023/07/09 04:02:47;;;;;;;5.82;4.57;;;20.30;99.90;;;;;;5030718;28;20231;-64
2023/07/09 04:05:14;;;;;;;4.63;4.18;;;20.20;99.90;;;;;;5010610;28;20208;-64
2023/07/09 04:07:41;;;;;;;7.85;4.20;;;20.30;99.90;;;;;;5042335;28;20196;-64
2023/07/09 04:10:10;;;;;;;5.47;4.60;;;20.30;99.90;;;;;;5022781;28;20229;-64
2023/07/09 04:12:37;;;;;;;4.95;4.38;;;20.40;99.90;;;;;;5032078;28;20208;-64
2023/07/09 04:15:05;;;;;;;4.90;4.40;;;20.40;99.90;;;;;;5042793;28;20246;-64
2023/07/09 04:17:32;;;;;;;4.95;4.13;;;20.40;99.90;;;;;;5030118;28;20234;-64
2023/07/09 04:19:59;;;;;;;8.02;4.63;;;20.40;99.90;;;;;;5021388;28;20223;-65
2023/07/09 04:22:26;;;;;;;5.30;4.80;;;20.40;99.90;;;;;;5034034;28;20209;-64
2023/07/09 04:24:53;;;;;;;5.28;4.05;;;20.60;99.90;;;;;;5049825;28;20232;-64
2023/07/09 04:27:21;;;;;;;4.60;3.97;;;20.40;99.90;;;;;;5046287;28;20198;-64
2023/07/09 04:29:48;;;;;;;5.43;4.10;;;20.40;99.90;;;;;;5034877;28;20213;-64
2023/07/09 04:32:16;;;;;;;4.97;4.30;;;20.40;99.90;;;;;;5034064;28;20227;-64
2023/07/09 04:34:43;;;;;;;6.50;4.18;;;20.40;99.90;;;;;;5020784;28;20204;-64
2023/07/09 04:37:11;;;;;;;6.57;4.43;;;20.40;99.90;;;;;;5045201;28;20189;-64
2023/07/09 04:39:38;;;;;;;5.70;4.38;;;20.40;99.90;;;;;;5027525;28;22213;-64
2023/07/09 04:42:07;;;;;;;4.57;4.15;;;20.40;99.90;;;;;;5043818;28;20197;-64
2023/07/09 04:44:35;;;;;;;6.38;4.60;;;20.40;99.90;;;;;;5025773;28;20810;-64
2023/07/09 04:47:01;;;;;;;4.85;4.20;;;20.40;99.90;;;;;;5034728;28;20644;-65
2023/07/09 04:49:28;;;;;;;4.53;4.13;;;20.50;99.90;;;;;;5035027;28;21023;-64
2023/07/09 04:51:56;;;;;;;4.82;4.35;;;20.50;99.90;;;;;;5025450;28;20229;-64
2023/07/09 04:54:23;;;;;;;4.60;4.20;;;20.50;99.90;;;;;;5031653;28;20213;-64
2023/07/09 04:56:50;;;;;;;5.53;4.25;;;20.50;99.90;;;;;;5037149;28;20201;-64
2023/07/09 04:59:16;;;;;;;5.45;4.50;;;20.50;99.90;;;;;;5029155;28;21053;-64
2023/07/09 05:01:44;;;;;;;7.35;4.10;;;20.50;99.90;;;;;;5038659;28;20208;-64
2023/07/09 05:04:11;;;;;;;6.45;4.45;;;20.60;99.90;;;;;;5033562;28;20197;-64
2023/07/09 05:06:38;;;;;;;5.40;3.88;;;20.60;99.90;;;;;;5021940;28;20201;-64
2023/07/09 05:09:05;;;;;;;5.50;4.22;;;20.60;99.90;;;;;;5041042;28;20232;-64
2023/07/09 05:11:36;;;;;;;4.60;4.10;;;20.60;99.90;;;;;;5034925;28;20224;-64
2023/07/09 05:14:03;;;;;;;8.25;4.25;;;20.70;99.90;;;;;;5020457;28;20213;-64
2023/07/09 05:16:30;;;;;;;8.63;4.35;;;20.70;99.90;;;;;;5045161;28;20201;-64
2023/07/09 05:18:58;;;;;;;6.15;4.10;;;20.60;99.90;;;;;;5029342;28;21471;-64
2023/07/09 05:21:25;;;;;;;4.55;4.13;;;20.70;99.90;;;;;;5021456;28;20212;-65
2023/07/09 05:23:52;;;;;;;6.68;4.03;;;20.80;99.90;;;;;;5037170;28;20236;-64
2023/07/09 05:26:18;;;;;;;4.45;3.80;;;21.50;99.90;;;;;;5032064;28;20406;-64
2023/07/09 05:28:46;;;;;;;6.43;4.10;;;20.80;99.90;;;;;;5040206;28;20200;-64
2023/07/09 05:31:13;;;;;;;5.35;4.03;;;20.90;99.90;;;;;;5030329;28;20224;-64
2023/07/09 05:33:40;;;;;;;6.05;4.20;;;20.90;99.90;;;;;;5031945;28;20552;-64
2023/07/09 05:36:13;;;;;;;4.72;4.32;;;21.00;99.90;;;;;;5013317;28;21214;-65
2023/07/09 05:38:40;;;;;;;5.63;4.13;;;21.10;99.90;;;;;;5037834;28;20204;-64
2023/07/09 05:41:07;;;;;;;4.35;3.95;;;21.10;99.90;;;;;;5028358;28;20767;-64
2023/07/09 05:43:34;;;;;;;4.63;4.13;;;21.10;99.90;;;;;;5040562;28;20201;-64
2023/07/09 05:46:02;;;;;;;6.18;4.03;;;21.10;99.90;;;;;;5027823;28;20204;-64
2023/07/09 05:48:29;;;;;;;5.13;4.38;;;21.20;99.90;;;;;;5027535;28;20342;-64
2023/07/09 05:50:56;;;;;;;6.35;4.43;;;21.20;99.90;;;;;;5036441;28;20229;-64
2023/07/09 05:53:24;;;;;;;4.70;4.20;;;21.30;99.90;;;;;;5010340;28;20400;-64
2023/07/09 05:55:54;;;;;;;5.68;4.20;;;21.30;99.90;;;;;;5040968;28;20257;-64
2023/07/09 05:58:21;;;;;;;4.72;4.22;;;21.40;99.90;;;;;;5024238;28;20298;-64
2023/07/09 06:00:52;;;;;;;8.25;4.10;;;21.50;99.90;;;;;;5031736;28;20205;-64
2023/07/09 06:03:19;;;;;;;6.05;4.03;;;21.50;99.90;;;;;;5030709;28;20204;-64
2023/07/09 06:05:45;;;;;;;5.13;3.90;;;21.50;99.90;;;;;;5041724;28;20539;-64
2023/07/09 06:08:13;;;;;;;4.63;4.22;;;21.60;99.90;;;;;;5015113;28;20209;-64
2023/07/09 06:10:50;;;;;;;6.45;4.15;;;21.60;99.90;;;;;;5043601;28;20251;-64
2023/07/09 06:13:18;;;;;;;5.22;4.22;;;21.70;99.90;;;;;;5031436;28;20208;-64
2023/07/09 06:15:45;;;;;;;4.82;3.95;;;21.70;99.90;;;;;;5037843;28;20201;-64
2023/07/09 06:18:11;;;;;;;4.22;3.83;;;21.70;99.90;;;;;;5044129;28;20196;-64
2023/07/09 06:20:39;;;;;;;4.85;4.05;;;21.70;99.90;;;;;;5032895;28;20860;-64
2023/07/09 06:23:07;;;;;;;5.40;4.20;;;21.80;99.90;;;;;;5018484;28;20237;-64
2023/07/09 06:25:33;;;;;;;5.50;4.13;;;21.80;99.90;;;;;;5031254;28;20666;-64
2023/07/09 06:28:01;;;;;;;11.32;4.45;;;21.90;99.90;;;;;;5032343;28;20523;-64
2023/07/09 06:30:28;;;;;;;4.80;3.63;;;22.00;99.90;;;;;;5037345;28;20225;-64
2023/07/09 06:32:55;;;;;;;5.25;4.50;;;22.00;99.90;;;;;;5034366;28;20204;-64
2023/07/09 06:35:22;;;;;;;5.57;4.28;;;22.00;99.90;;;;;;5029574;28;20204;-65
2023/07/09 06:37:48;;;;;;;7.78;3.95;;;22.10;99.90;;;;;;5014513;28;21080;-64
2023/07/09 06:40:15;;;;;;;7.72;4.43;;;22.10;99.90;;;;;;5033951;28;20197;-64
2023/07/09 06:42:42;;;;;;;5.28;4.32;;;22.20;99.90;;;;;;5039387;28;20204;-64
2023/07/09 06:45:11;;;;;;;4.93;4.15;;;22.20;99.90;;;;;;5016361;28;20200;-64
2023/07/09 06:47:37;;;;;;;5.35;3.85;;;22.30;99.90;;;;;;5030279;28;20737;-64
2023/07/09 06:50:05;;;;;;;5.75;4.43;;;22.30;99.90;;;;;;5024792;28;20197;-64
2023/07/09 06:52:32;;;;;;;5.20;4.47;;;22.30;99.90;;;;;;5020833;28;20256;-64
2023/07/09 06:54:59;;;;;;;5.03;4.20;;;22.40;99.90;;;;;;5034160;28;20204;-65
2023/07/09 06:57:25;;;;;;;4.50;4.10;;;22.40;99.90;;;;;;5022477;28;20225;-64
2023/07/09 06:59:52;;;;;;;6.00;4.15;;;22.50;99.90;;;;;;5021916;28;20677;-64
2023/07/09 07:02:20;;;;;;;4.93;4.43;;;22.50;99.90;;;;;;5011459;28;20236;-64
2023/07/09 07:04:47;;;;;;;7.90;4.20;;;22.50;99.90;;;;;;5043839;28;20196;-64
2023/07/09 07:07:14;;;;;;;8.43;4.47;;;22.00;99.90;;;;;;5026208;28;20192;-65
2023/07/09 07:09:41;;;;;;;8.90;4.72;;;22.50;99.90;;;;;;5023819;28;20244;-64
2023/07/09 07:12:08;;;;;;;4.40;4.05;;;22.60;99.90;;;;;;5044125;28;20235;-64
2023/07/09 07:14:35;;;;;;;6.20;4.70;;;22.90;99.90;;;;;;5033292;28;20201;-65
2023/07/09 07:17:02;;;;;;;8.57;4.20;;;22.70;99.90;;;;;;5037781;28;20216;-64
2023/07/09 07:19:30;;;;;;;7.57;4.32;;;22.40;99.90;;;;;;5027916;28;21181;-64
2023/07/09 07:21:57;;;;;;;6.38;4.53;;;22.80;99.90;;;;;;5029479;28;20212;-65
2023/07/09 07:24:24;;;;;;;5.00;4.00;;;22.90;99.90;;;;;;5019585;28;20248;-64
2023/07/09 07:26:50;;;;;;;5.15;4.10;;;22.90;99.90;;;;;;5046313;28;20196;-64
2023/07/09 07:29:17;;;;;;;5.75;4.50;;;22.90;99.90;;;;;;5039705;28;20201;-64
2023/07/09 07:31:44;;;;;;;5.25;4.22;;;22.90;99.90;;;;;;5035444;28;20243;-65
2023/07/09 07:34:11;;;;;;;6.85;4.18;;;23.00;99.90;;;;;;5031599;28;20282;-65
2023/07/09 07:36:40;;;;;;;6.15;5.55;;;23.10;99.90;;;;;;5035875;28;20196;-65
2023/07/09 07:39:07;;;;;;;5.65;4.50;;;23.10;99.90;;;;;;5014789;28;20386;-65
2023/07/09 07:41:33;;;;;;;6.68;4.43;;;23.10;99.90;;;;;;5041036;28;20224;-64
2023/07/09 07:44:00;;;;;;;4.60;4.20;;;23.20;99.90;;;;;;5046843;28;20212;-64
2023/07/09 07:46:28;;;;;;;6.18;4.78;;;23.20;99.90;;;;;;5041591;28;20205;-65
2023/07/09 07:48:55;;;;;;;4.85;4.28;;;23.20;99.90;;;;;;5035964;28;20610;-64
2023/07/09 07:51:22;;;;;;;4.80;4.28;;;23.30;99.90;;;;;;5026005;28;20705;-65
2023/07/09 07:53:50;;;;;;;7.00;4.47;;;23.40;99.90;;;;;;5023795;28;20783;-65
2023/07/09 07:56:17;;;;;;;5.60;4.55;;;23.40;99.90;;;;;;5020937;28;20212;-64
2023/07/09 07:58:44;;;;;;;5.70;4.30;;;23.40;99.90;;;;;;5024275;28;20235;-65
2023/07/09 08:01:11;;;;;;;4.93;4.45;;;23.50;99.90;;;;;;5020520;28;20256;-65
2023/07/09 08:03:38;;;;;;;5.50;4.18;;;23.50;99.90;;;;;;5033671;28;20217;-64
2023/07/09 08:06:04;;;;;;;7.68;4.78;;;23.60;99.90;;;;;;5011922;28;23160;-65
2023/07/09 08:08:31;;;;;;;5.35;4.28;;;23.60;99.90;;;;;;5048753;28;20212;-64
2023/07/09 08:11:04;;;;;;;7.88;4.45;;;23.80;99.90;;;;;;5007767;28;20236;-65
2023/07/09 08:13:32;;;;;;;5.43;4.30;;;23.80;99.90;;;;;;5032690;28;20201;-65
2023/07/09 08:15:59;;;;;;;4.43;4.00;;;23.80;99.90;;;;;;5034747;28;20322;-65
2023/07/09 08:18:25;;;;;;;4.88;3.95;;;23.80;99.90;;;;;;5029212;28;20212;-65
2023/07/09 08:20:52;;;;;;;5.97;3.80;;;23.80;99.90;;;;;;5028248;28;20200;-65
2023/07/09 08:23:19;;;;;;;6.35;5.15;;;24.00;99.90;;;;;;5031249;28;20232;-64
2023/07/09 08:25:53;;;;;;;4.70;4.30;;;23.90;99.90;;;;;;5003075;28;20992;-64
2023/07/09 08:28:21;;;;;;;4.70;4.25;;;24.00;99.90;;;;;;5023238;28;20233;-65
2023/07/09 08:30:49;;;;;;;6.10;4.28;;;24.00;99.90;;;;;;5032997;28;20205;-65
2023/07/09 08:33:16;;;;;;;4.70;4.10;;;24.00;99.90;;;;;;5014052;28;20196;-64
2023/07/09 08:35:43;;;;;;;5.70;5.13;;;24.00;99.90;;;;;;5026312;28;20201;-65
2023/07/09 08:38:10;;;;;;;4.22;3.83;;;24.10;99.90;;;;;;5019966;28;20713;-65
2023/07/09 08:40:41;;;;;;;6.80;4.45;;;24.20;99.90;;;;;;5015488;28;20981;-65
2023/07/09 08:43:18;;;;;;;7.68;4.30;;;24.30;99.90;;;;;;5041207;28;20198;-65
2023/07/09 08:45:56;;;;;;;5.80;4.72;;;24.30;99.90;;;;;;5041045;28;20208;-64
2023/07/09 08:48:29;;;;;;;5.03;4.53;;;24.40;99.90;;;;;;5015171;28;20215;-65
2023/07/09 08:51:00;;;;;;;9.57;4.57;;;24.40;99.90;;;;;;5023850;28;20213;-64
2023/07/09 08:53:34;;;;;;;7.45;4.47;;;24.40;99.90;;;;;;5017257;28;20197;-65
2023/07/09 08:56:01;;;;;;;6.35;4.72;;;24.50;99.90;;;;;;5042120;28;20602;-65
2023/07/09 08:58:30;;;;;;;5.75;4.50;;;24.60;99.90;;;;;;5015039;28;20718;-65
2023/07/09 09:01:01;;;;;;;6.70;4.53;;;24.70;99.90;;;;;;5041740;28;20209;-64
2023/07/09 09:03:35;;;;;;;6.55;4.43;;;24.70;99.90;;;;;;5032072;28;20212;-65
2023/07/09 09:06:02;;;;;;;6.38;4.55;;;24.70;99.90;;;;;;5031202;28;20228;-65
2023/07/09 09:08:40;;;;;;;6.53;4.28;;;24.90;99.90;;;;;;5034389;28;20201;-65
2023/07/09 09:11:15;;;;;;;4.47;3.92;;;25.00;99.90;;;;;;5034876;28;20201;-64
2023/07/09 09:13:43;;;;;;;7.75;4.70;;;25.00;99.90;;;;;;5027899;28;20234;-65
2023/07/09 09:16:18;;;;;;;5.63;4.50;;;25.00;99.90;;;;;;5035313;28;20753;-65
2023/07/09 09:18:46;;;;;;;4.55;4.15;;;25.10;99.90;;;;;;5031762;28;20227;-65
2023/07/09 09:21:22;;;;;;;5.45;4.95;;;25.10;99.90;;;;;;5030900;28;20204;-65
2023/07/09 09:23:53;;;;;;;5.88;4.35;;;25.10;99.90;;;;;;5030158;28;20249;-64
2023/07/09 09:26:24;;;;;;;4.85;4.43;;;25.10;99.90;;;;;;4997546;28;20315;-65
2023/07/09 09:28:52;;;;;;;5.38;4.28;;;25.30;99.90;;;;;;5029814;28;20227;-65
2023/07/09 09:31:20;;;;;;;4.78;4.30;;;25.30;99.90;;;;;;5020445;28;20256;-65
2023/07/09 09:33:49;;;;;;;4.40;4.00;;;25.40;99.90;;;;;;5027058;28;20609;-65
2023/07/09 09:36:19;;;;;;;4.25;3.85;;;25.40;99.90;;;;;;5029706;28;20209;-65
2023/07/09 09:38:46;;;;;;;5.35;4.38;;;25.60;99.90;;;;;;5026746;28;20197;-65
2023/07/09 09:41:18;;;;;;;4.68;4.15;;;25.40;99.90;;;;;;5038100;28;20937;-65
2023/07/09 09:43:47;;;;;;;4.40;4.00;;;25.70;99.90;;;;;;5013688;28;22348;-64
2023/07/09 09:46:21;;;;;;;5.47;4.13;;;25.70;99.90;;;;;;5040121;28;20211;-65
2023/07/09 09:48:49;;;;;;;4.70;4.20;;;25.90;99.90;;;;;;5008504;28;20202;-65
2023/07/09 09:51:17;;;;;;;7.60;4.43;;;25.90;99.90;;;;;;5006512;28;20213;-65
2023/07/09 09:53:49;;;;;;;9.48;4.68;;;26.00;99.90;;;;;;5023521;28;20250;-65
2023/07/09 09:56:21;;;;;;;4.93;4.45;;;26.10;99.90;;;;;;5025698;28;20305;-65
2023/07/09 09:58:54;;;;;;;5.00;4.50;;;26.20;99.90;;;;;;5013151;28;20674;-65
2023/07/09 10:01:29;;;;;;;4.40;4.03;;;26.20;99.90;;;;;;5041038;28;20673;-65
2023/07/09 10:03:58;;;;;;;6.07;4.38;;;26.30;99.90;;;;;;5029822;28;20200;-65
2023/07/09 10:06:34;;;;;;;7.07;4.40;;;26.40;99.90;;;;;;5033649;28;20200;-65
2023/07/09 10:09:06;;;;;;;4.93;4.40;;;26.50;99.90;;;;;;5026572;28;20204;-65
2023/07/09 10:11:45;;;;;;;5.78;4.70;;;26.50;99.90;;;;;;5020331;28;20206;-65
2023/07/09 10:14:32;;;;;;;5.60;4.68;;;26.50;99.90;;;;;;5038161;28;20761;-65
2023/07/09 10:17:06;;;;;;;5.32;4.70;;;26.60;99.90;;;;;;5033222;28;20197;-65
2023/07/09 10:19:40;;;;;;;4.88;4.38;;;26.60;99.90;;;;;;5025007;28;20210;-65
2023/07/09 10:22:13;;;;;;;6.43;4.38;;;26.60;99.90;;;;;;5014172;28;20205;-65
2023/07/09 10:24:52;;;;;;;5.05;4.05;;;26.70;99.90;;;;;;5039504;28;20252;-65
2023/07/09 10:27:29;;;;;;;4.55;4.15;;;26.70;99.90;;;;;;4989635;28;20689;-65
2023/07/09 10:30:14;;;;;;;6.72;4.20;;;26.80;99.90;;;;;;5036652;28;20211;-65
2023/07/09 10:32:53;;;;;;;6.65;4.45;;;27.10;99.90;;;;;;5037382;28;20713;-65
2023/07/09 10:35:33;;;;;;;6.97;4.25;;;27.10;99.90;;;;;;5011862;28;20670;-65
2023/07/09 10:38:15;;;;;;;5.90;4.13;;;27.00;99.90;;;;;;5018525;28;20205;-64
2023/07/09 10:40:47;;;;;;;5.55;4.22;;;27.10;99.90;;;;;;5023447;28;20224;-64
2023/07/09 10:43:17;;;;;;;5.00;4.50;;;27.10;99.90;;;;;;5003367;28;20229;-64
2023/07/09 10:45:48;;;;;;;5.25;4.60;;;27.10;99.90;;;;;;5042502;28;20205;-64
2023/07/09 10:48:19;;;;;;;4.43;4.03;;;27.30;99.90;;;;;;5045928;28;20613;-64
2023/07/09 10:50:50;;;;;;;10.82;4.70;;;27.30;99.90;;;;;;5026034;28;20479;-65
2023/07/09 10:53:32;;;;;;;5.78;4.10;;;27.40;99.90;;;;;;4984696;28;20232;-64
2023/07/09 10:56:03;;;;;;;5.40;4.60;;;27.40;99.90;;;;;;5027246;28;20213;-64
2023/07/09 10:58:37;;;;;;;8.10;4.45;;;27.40;99.90;;;;;;4986145;28;20544;-65
2023/07/09 11:01:05;;;;;;;8.32;4.18;;;27.50;99.90;;;;;;5023751;28;20867;-64
2023/07/09 11:03:42;;;;;;;4.28;3.88;;;27.40;99.90;;;;;;5017531;28;21155;-65
2023/07/09 11:06:18;;;;;;;4.30;3.97;;;27.50;99.90;;;;;;5010290;28;20239;-64
2023/07/09 11:08:48;;;;;;;4.90;4.07;;;27.50;99.90;;;;;;5013411;28;20200;-65
2023/07/09 11:11:22;;;;;;;6.63;3.83;;;27.50;99.90;;;;;;5028973;28;20200;-64
2023/07/09 11:13:53;;;;;;;5.45;4.07;;;27.60;99.90;;;;;;4996274;28;20247;-65
2023/07/09 11:16:28;;;;;;;5.70;4.53;;;27.70;99.90;;;;;;5008047;28;20766;-64
2023/07/09 11:19:00;;;;;;;5.05;4.40;;;27.80;99.90;;;;;;5025131;28;20729;-64
2023/07/09 11:21:27;;;;;;;4.75;4.35;;;27.80;99.90;;;;;;5006469;28;20517;-65
2023/07/09 11:23:56;;;;;;;12.15;4.38;;;27.90;99.90;;;;;;5031759;28;20237;-64
2023/07/09 11:26:26;;;;;;;5.53;4.10;;;28.00;99.90;;;;;;5026677;28;20212;-65
2023/07/09 11:28:55;;;;;;;6.93;4.20;;;28.00;99.90;;;;;;5014675;28;20209;-65
2023/07/09 11:31:24;;;;;;;6.43;4.70;;;28.00;99.90;;;;;;4996581;28;20224;-65
2023/07/09 11:34:02;;;;;;;12.50;4.60;;;28.00;99.90;;;;;;5038552;28;20234;-64
2023/07/09 11:36:31;;;;;;;6.55;4.38;;;28.10;99.90;;;;;;5021652;28;20207;-65
2023/07/09 11:38:58;;;;;;;6.57;4.45;;;28.20;99.90;;;;;;5030869;28;20208;-65
2023/07/09 11:41:39;;;;;;;5.32;4.40;;;28.30;99.90;;;;;;5022990;28;20208;-65
2023/07/09 11:44:14;;;;;;;5.13;4.20;;;28.40;99.90;;;;;;5014173;28;20242;-65
2023/07/09 11:47:06;;;;;;;5.35;3.72;;;28.30;99.90;;;;;;5023050;28;20228;-66
2023/07/09 11:49:45;;;;;;;4.93;4.53;;;28.30;99.90;;;;;;5017214;28;20193;-65
2023/07/09 11:52:13;;;;;;;6.40;4.50;;;28.40;99.90;;;;;;5019077;28;20220;-66
2023/07/09 11:54:40;;;;;;;6.28;4.13;;;28.30;99.90;;;;;;5022969;28;20204;-66
2023/07/09 11:57:13;;;;;;;6.20;4.35;;;28.40;99.90;;;;;;5008558;28;20225;-66
2023/07/09 11:59:40;;;;;;;5.35;4.50;;;28.40;99.90;;;;;;5010338;28;20311;-65
2023/07/09 12:02:16;;;;;;;5.55;4.38;;;28.40;99.90;;;;;;4993299;28;20232;-66
2023/07/09 12:04:44;;;;;;;4.75;4.35;;;28.50;99.90;;;;;;5027890;28;20235;-66
2023/07/09 12:07:16;;;;;;;8.68;4.53;;;29.20;99.90;;;;;;5022011;28;20220;-65
2023/07/09 12:09:50;;;;;;;5.35;4.45;;;28.80;99.90;;;;;;5013209;28;20616;-65
2023/07/09 12:12:22;;;;;;;6.00;4.60;;;28.60;99.90;;;;;;5012997;28;20224;-66
2023/07/09 12:14:49;;;;;;;4.95;4.45;;;28.70;99.90;;;;;;5019998;28;20224;-66
2023/07/09 12:17:16;;;;;;;8.15;4.30;;;28.70;99.90;;;;;;5010695;28;20236;-66
2023/07/09 12:19:44;;;;;;;6.57;4.45;;;28.90;99.90;;;;;;5029047;28;20741;-66
2023/07/09 12:22:20;;;;;;;5.05;4.10;;;29.00;99.90;;;;;;5023240;28;20202;-66
2023/07/09 12:24:49;;;;;;;4.70;4.20;;;29.00;99.90;;;;;;5012446;28;20232;-66
2023/07/09 12:27:23;;;;;;;7.80;4.30;;;29.00;99.90;;;;;;5003116;28;20240;-66
2023/07/09 12:29:54;;;;;;;6.53;4.40;;;28.90;99.90;;;;;;5006435;28;20221;-66
2023/07/09 12:32:22;;;;;;;4.38;3.97;;;28.90;99.90;;;;;;5000531;28;20475;-66
2023/07/09 12:34:53;;;;;;;4.68;4.28;;;28.90;99.90;;;;;;5018200;28;21000;-66
2023/07/09 12:37:22;;;;;;;4.80;4.30;;;29.00;99.90;;;;;;5028438;28;20221;-66
2023/07/09 12:39:51;;;;;;;5.65;4.70;;;29.00;99.90;;;;;;5030939;28;20785;-64
2023/07/09 12:42:24;;;;;;;8.68;4.60;;;29.00;99.90;;;;;;5039385;28;20224;-64
2023/07/09 12:44:51;;;;;;;5.10;4.60;;;29.00;99.90;;;;;;5040042;28;20207;-65
2023/07/09 12:47:20;;;;;;;7.28;4.32;;;29.00;99.90;;;;;;5041935;28;20200;-64
2023/07/09 12:49:50;;;;;;;5.30;4.63;;;29.10;99.90;;;;;;5024645;28;20232;-65
2023/07/09 12:52:20;;;;;;;4.97;4.47;;;29.10;99.90;;;;;;5034052;28;20265;-64
2023/07/09 12:54:56;;;;;;;6.38;4.80;;;29.10;99.90;;;;;;5033135;28;20205;-65
2023/07/09 12:57:24;;;;;;;5.22;4.50;;;29.20;99.90;;;;;;5027733;28;20348;-64
2023/07/09 12:59:51;;;;;;;4.80;4.30;;;29.30;99.90;;;;;;5034740;28;20201;-64